Time;durP1;ratioP1;P1;durP2;ratioP2;P2;SDS_P1;SDS_P2;PMS_P1;PMS_P2;Temp;Humidity;BMP_temperature;BMP_pressure;BME280_temperature;BME280_humidity;BME280_pressure;Samples;Min_cycle;Max_cycle;Signal;HPM_P1;HPM_P2
2023/03/23 00:00:26;;;;;;;49.00;44.60;;;;;;;21.13;39.05;95003.34;6214036;28;108737;-64
2023/03/23 00:03:38;;;;;;;45.80;41.70;;;;;;;21.17;38.59;95008.84;6213381;27;109758;-64
2023/03/23 00:06:45;;;;;;;46.87;42.57;;;;;;;21.16;38.84;95007.28;6222979;28;108940;-65
2023/03/23 00:09:53;;;;;;;44.57;40.70;;;;;;;21.14;38.84;95012.13;6218310;28;109535;-64
2023/03/23 00:13:02;;;;;;;43.57;39.57;;;;;;;21.15;38.65;95011.03;6224443;28;108893;-64
2023/03/23 00:16:05;;;;;;;44.00;40.10;;;;;;;21.13;39.03;95003.34;6213425;28;109329;-64
2023/03/23 00:19:12;;;;;;;43.30;39.50;;;;;;;21.12;38.53;95009.75;6215272;28;108680;-64
2023/03/23 00:22:20;;;;;;;42.23;38.43;;;;;;;21.13;38.72;95008.69;6223340;28;109751;-64
2023/03/23 00:25:26;;;;;;;42.67;38.87;;;;;;;21.12;38.83;95012.44;6212374;28;109412;-65
2023/03/23 00:28:29;;;;;;;41.37;37.57;;;;;;;21.12;39.18;95022.28;6215239;28;108941;-65
2023/03/23 00:31:35;;;;;;;39.67;36.13;;;;;;;21.11;38.48;95020.72;6217665;28;110093;-64
2023/03/23 00:34:45;;;;;;;39.33;35.77;;;;;;;21.11;38.51;95020.72;6222575;28;109187;-65
2023/03/23 00:37:52;;;;;;;39.60;35.93;;;;;;;21.10;38.62;95029.78;6217098;28;109229;-65
2023/03/23 00:40:57;;;;;;;38.47;34.87;;;;;;;21.11;38.86;95026.03;6222751;28;109050;-65
2023/03/23 00:44:04;;;;;;;39.10;35.70;;;;;;;21.09;38.46;95033.53;6222695;28;110919;-65
2023/03/23 00:47:15;;;;;;;35.87;32.70;;;;;;;21.10;38.41;95035.88;6224312;28;108980;-66
2023/03/23 00:50:24;;;;;;;35.60;32.50;;;;;;;21.10;38.69;95043.09;6228092;27;109300;-67
2023/03/23 00:53:29;;;;;;;37.47;34.07;;;;;;;21.10;38.84;95045.75;6215687;27;108956;-65
2023/03/23 00:56:33;;;;;;;34.43;31.43;;;;;;;21.10;38.76;95041.22;6215875;28;108951;-65
2023/03/23 00:59:39;;;;;;;33.03;30.27;;;;;;;21.12;38.27;95035.59;6206937;28;109416;-65
2023/03/23 01:02:46;;;;;;;33.43;30.33;;;;;;;21.10;38.20;95043.09;6224248;28;108814;-63
2023/03/23 01:05:51;;;;;;;31.57;28.80;;;;;;;21.10;38.54;95037.75;6218099;28;108927;-64
2023/03/23 01:08:58;;;;;;;31.20;28.40;;;;;;;21.10;38.81;95035.88;6221217;27;108963;-64
2023/03/23 01:12:07;;;;;;;31.37;28.57;;;;;;;21.08;38.38;95032.75;6220712;28;109098;-63
2023/03/23 01:15:15;;;;;;;30.30;27.60;;;;;;;21.07;38.63;95035.72;6235565;27;108811;-63
2023/03/23 01:18:22;;;;;;;29.13;26.43;;;;;;;21.08;38.66;95021.31;6230100;27;109344;-64
2023/03/23 01:21:31;;;;;;;27.77;25.27;;;;;;;21.06;38.42;95021.63;6214174;28;108912;-64
2023/03/23 01:24:38;;;;;;;28.20;25.60;;;;;;;21.07;38.64;95025.06;6208211;28;111258;-64
2023/03/23 01:27:43;;;;;;;26.33;24.00;;;;;;;21.07;38.47;95019.75;6217497;28;108731;-64
2023/03/23 01:30:50;;;;;;;26.67;24.27;;;;;;;21.05;38.25;95021.91;6222295;28;108997;-64
2023/03/23 01:33:56;;;;;;;26.77;24.37;;;;;;;21.06;38.77;95018.16;6212391;28;109363;-63
2023/03/23 01:37:06;;;;;;;25.73;23.43;;;;;;;21.05;38.69;95005.97;6228621;28;109063;-63
2023/03/23 01:40:12;;;;;;;25.47;23.30;;;;;;;21.05;38.38;95011.28;6232865;28;109402;-63
2023/03/23 01:43:21;;;;;;;23.40;21.40;;;;;;;21.03;38.37;95002.78;6215452;27;109283;-63
2023/03/23 01:46:30;;;;;;;24.03;21.93;;;;;;;21.04;38.15;95002.47;6216212;28;109279;-63
2023/03/23 01:49:39;;;;;;;22.50;20.70;;;;;;;21.04;38.05;95005.13;6214121;28;109199;-63
2023/03/23 01:52:47;;;;;;;23.53;21.53;;;;;;;21.05;38.12;95005.97;6211512;28;108980;-64
2023/03/23 01:55:56;;;;;;;22.63;20.63;;;;;;;21.03;38.32;94998.25;6219966;28;109847;-65
2023/03/23 01:59:03;;;;;;;22.87;20.97;;;;;;;21.04;38.47;94997.16;6217553;28;109020;-63
2023/03/23 02:02:12;;;;;;;23.10;20.90;;;;;;;21.04;38.08;94999.81;6219127;27;109046;-65
2023/03/23 02:05:26;;;;;;;22.13;20.23;;;;;;;21.05;38.34;95000.63;6217704;28;109019;-61
2023/03/23 02:08:36;;;;;;;20.30;18.50;;;;;;;21.03;38.22;94992.13;6225268;27;109897;-61
2023/03/23 02:11:42;;;;;;;20.20;18.50;;;;;;;21.04;38.15;94999.03;6213258;28;109513;-61
2023/03/23 02:14:51;;;;;;;19.37;17.77;;;;;;;21.03;38.17;95000.91;6213351;28;108970;-61
2023/03/23 02:18:06;;;;;;;19.83;18.13;;;;;;;21.04;37.89;94999.81;6210085;28;108928;-62
2023/03/23 02:21:50;;;;;;;18.60;17.00;;;;;;;21.03;38.32;94998.25;6206102;28;109331;-61
2023/03/23 02:25:31;;;;;;;18.87;17.17;;;;;;;21.04;38.11;94999.81;6209998;28;109032;-63
2023/03/23 02:29:06;;;;;;;17.60;16.10;;;;;;;21.03;38.09;94997.47;6226427;27;110050;-63
2023/03/23 02:32:35;;;;;;;17.00;15.60;;;;;;;21.03;38.43;95000.91;6217262;28;109161;-63
2023/03/23 02:35:49;;;;;;;17.07;15.57;;;;;;;20.97;37.89;94994.09;6218505;27;109019;-63
2023/03/23 02:39:05;;;;;;;16.83;15.40;;;;;;;21.03;38.20;95002.78;6216739;28;109756;-62
2023/03/23 02:42:16;;;;;;;15.73;14.43;;;;;;;21.02;38.11;95012.63;6223882;28;109187;-64
2023/03/23 02:45:22;;;;;;;15.20;13.90;;;;;;;21.02;38.30;95017.16;6227489;28;108992;-62
2023/03/23 02:48:32;;;;;;;15.90;14.53;;;;;;;21.03;38.03;95013.41;6222633;28;108879;-62
2023/03/23 02:51:42;;;;;;;15.87;14.57;;;;;;;21.00;37.73;95019.31;6223813;28;109281;-62
2023/03/23 02:54:50;;;;;;;14.40;13.20;;;;;;;21.03;38.17;95034.72;6214129;28;111430;-62
2023/03/23 02:58:01;;;;;;;15.13;13.83;;;;;;;21.02;37.92;95033.13;6218969;28;108907;-61
2023/03/23 03:01:50;;;;;;;13.67;12.47;;;;;;;21.02;38.22;95038.47;6225989;27;110064;-61
2023/03/23 03:05:04;;;;;;;14.20;12.90;;;;;;;21.01;37.89;95047.53;6179711;28;109176;-64
2023/03/23 03:08:20;;;;;;;14.53;13.23;;;;;;;21.02;37.86;95057.88;6212406;28;109218;-64
2023/03/23 03:11:27;;;;;;;13.83;12.60;;;;;;;21.01;37.73;95055.50;6213384;28;108727;-65
2023/03/23 03:14:39;;;;;;;14.73;13.27;;;;;;;21.01;38.07;95055.50;6213820;28;109184;-64
2023/03/23 03:17:51;;;;;;;14.03;12.83;;;;;;;21.00;38.24;95067.19;6213841;28;109074;-64
2023/03/23 03:21:02;;;;;;;14.90;13.67;;;;;;;21.00;38.00;95057.34;6221397;28;108874;-64
2023/03/23 03:24:17;;;;;;;16.87;15.27;;;;;;;20.99;38.11;95063.75;6213672;28;108724;-64
2023/03/23 03:27:27;;;;;;;16.33;15.03;;;;;;;21.00;37.69;95067.19;6225040;28;109310;-64
2023/03/23 03:30:39;;;;;;;18.00;16.47;;;;;;;20.99;37.73;95068.28;6225449;27;110742;-64
2023/03/23 03:33:48;;;;;;;17.80;16.20;;;;;;;20.99;37.87;95065.63;6209577;28;108629;-64
2023/03/23 03:37:01;;;;;;;18.60;16.80;;;;;;;20.98;37.92;95061.41;6230431;28;110775;-64
2023/03/23 03:40:15;;;;;;;18.80;17.07;;;;;;;20.98;38.03;95058.72;6226377;27;108933;-64
2023/03/23 03:43:19;;;;;;;19.00;17.30;;;;;;;20.98;37.85;95056.84;6225869;27;110101;-63
2023/03/23 03:46:26;;;;;;;18.03;16.43;;;;;;;20.97;37.94;95057.94;6217547;28;108973;-64
2023/03/23 03:49:30;;;;;;;18.67;16.97;;;;;;;20.98;37.76;95064.06;6218288;27;108777;-63
2023/03/23 03:52:34;;;;;;;18.20;16.70;;;;;;;20.96;37.70;95067.00;6214701;28;109238;-64
2023/03/23 03:55:38;;;;;;;18.90;17.30;;;;;;;20.97;37.75;95062.47;6236027;27;108970;-65
2023/03/23 03:58:42;;;;;;;18.53;16.93;;;;;;;20.96;37.74;95066.22;6219244;27;108859;-65
2023/03/23 04:01:45;;;;;;;17.47;16.00;;;;;;;20.96;37.85;95050.28;6225133;28;108962;-64
2023/03/23 04:04:49;;;;;;;17.83;16.33;;;;;;;20.96;37.85;95060.91;6208222;28;108919;-63
2023/03/23 04:08:01;;;;;;;18.70;17.00;;;;;;;20.93;37.73;95049.78;6222684;28;108959;-63
2023/03/23 04:11:05;;;;;;;17.60;15.90;;;;;;;20.92;37.73;95050.88;6229324;27;109330;-63
2023/03/23 04:14:10;;;;;;;17.43;15.83;;;;;;;20.90;37.60;95061.03;6224772;27;109204;-64
2023/03/23 04:17:19;;;;;;;17.83;16.33;;;;;;;20.67;36.71;95051.41;6227363;28;109003;-59
2023/03/23 04:20:24;;;;;;;16.80;15.30;;;;;;;20.30;35.78;95058.44;6234034;27;108914;-61
2023/03/23 04:23:31;;;;;;;15.87;14.57;;;;;;;20.08;35.74;95060.16;6213998;28;108949;-59
2023/03/23 04:26:41;;;;;;;15.90;14.57;;;;;;;19.98;35.62;95058.44;6214083;27;108922;-60
2023/03/23 04:29:48;;;;;;;17.73;16.23;;;;;;;19.90;35.06;95053.81;6233052;27;109329;-60
2023/03/23 04:32:56;;;;;;;15.87;14.60;;;;;;;19.77;35.06;95051.91;6227663;28;108887;-61
2023/03/23 04:36:06;;;;;;;16.30;15.00;;;;;;;19.74;35.05;95047.97;6220311;28;108826;-61
2023/03/23 04:39:09;;;;;;;15.60;14.37;;;;;;;19.70;35.02;95047.75;6217507;27;110570;-62
2023/03/23 04:42:21;;;;;;;15.03;13.83;;;;;;;19.68;35.25;95041.94;6226707;27;109765;-61
2023/03/23 04:45:24;;;;;;;13.97;12.80;;;;;;;19.63;35.10;95049.97;6214293;28;109430;-61
2023/03/23 04:48:29;;;;;;;12.20;11.20;;;;;;;19.84;35.87;95045.16;6215692;27;109040;-63
2023/03/23 04:51:36;;;;;;;11.33;10.33;;;;;;;20.03;35.82;95061.81;6223063;27;108977;-62
2023/03/23 04:54:46;;;;;;;11.33;10.43;;;;;;;19.92;36.72;95073.69;6217420;28;109113;-60
2023/03/23 04:57:56;;;;;;;10.60;9.60;;;;;;;19.87;37.17;95072.97;6224559;27;110051;-63
2023/03/23 05:00:58;;;;;;;9.53;8.73;;;;;;;20.13;37.97;95068.03;6215201;27;109857;-62
2023/03/23 05:04:02;;;;;;;10.93;10.03;;;;;;;20.23;36.81;95073.97;6222763;28;110771;-64
2023/03/23 05:07:06;;;;;;;10.70;9.17;;;;;;;20.25;36.65;95068.38;6219226;28;111536;-63
2023/03/23 05:10:16;;;;;;;9.47;8.60;;;;;;;20.22;36.37;95071.59;6217882;28;108976;-63
2023/03/23 05:13:23;;;;;;;8.33;7.60;;;;;;;20.25;37.48;95076.34;6228346;27;109245;-63
2023/03/23 05:16:30;;;;;;;8.63;7.93;;;;;;;20.30;36.53;95086.88;6221873;28;109037;-63
2023/03/23 05:19:41;;;;;;;8.10;7.47;;;;;;;20.25;37.12;95074.47;6219797;27;108964;-63
2023/03/23 05:22:49;;;;;;;7.77;7.07;;;;;;;20.35;37.32;95080.72;6220353;28;108892;-64
2023/03/23 05:26:02;;;;;;;6.97;6.47;;;;;;;20.39;36.88;95079.03;6236400;27;108753;-61
2023/03/23 05:29:15;;;;;;;8.03;7.00;;;;;;;20.44;36.63;95089.56;6236455;27;109067;-60
2023/03/23 05:32:29;;;;;;;6.80;6.17;;;;;;;20.47;36.42;95092.41;6223949;27;109019;-61
2023/03/23 05:35:35;;;;;;;6.83;6.13;;;;;;;20.47;36.58;95099.59;6225182;27;108849;-61
2023/03/23 05:38:41;;;;;;;6.07;5.57;;;;;;;20.48;36.78;95094.00;6236691;27;108807;-61
2023/03/23 05:41:49;;;;;;;6.70;6.10;;;;;;;20.48;36.59;95101.97;6236085;27;108965;-61
2023/03/23 05:44:58;;;;;;;7.20;6.50;;;;;;;20.49;36.85;95110.72;6231218;27;109246;-61
2023/03/23 05:48:05;;;;;;;7.20;6.67;;;;;;;20.50;36.59;95112.31;6231915;28;110682;-61
2023/03/23 05:51:16;;;;;;;6.70;6.00;;;;;;;20.50;36.32;95112.31;6236086;27;109137;-61
2023/03/23 05:54:26;;;;;;;6.47;5.97;;;;;;;20.50;36.82;95109.66;6236166;27;109350;-61
2023/03/23 05:57:36;;;;;;;6.73;6.13;;;;;;;20.51;36.49;95114.69;6225378;27;109041;-61
2023/03/23 06:00:46;;;;;;;6.77;6.17;;;;;;;20.52;36.60;95115.47;6236273;27;109861;-60
2023/03/23 06:03:53;;;;;;;6.83;6.23;;;;;;;20.54;36.75;95115.97;6239304;27;108974;-59
2023/03/23 06:06:58;;;;;;;6.50;6.00;;;;;;;20.57;36.23;95118.84;6240058;27;109889;-60
2023/03/23 06:10:13;;;;;;;6.00;5.53;;;;;;;20.58;36.53;95119.63;6229683;27;109372;-62
2023/03/23 06:13:16;;;;;;;6.40;5.80;;;;;;;20.57;36.44;95118.03;6240230;27;108859;-59
2023/03/23 06:16:27;;;;;;;6.53;6.00;;;;;;;20.61;36.34;95124.34;6240323;27;108904;-60
2023/03/23 06:19:36;;;;;;;6.90;6.30;;;;;;;20.63;36.28;95127.50;6229216;27;109043;-61
2023/03/23 06:22:45;;;;;;;6.20;5.70;;;;;;;20.69;36.32;95121.00;6239538;27;108859;-60
2023/03/23 06:25:57;;;;;;;6.23;5.73;;;;;;;20.77;36.25;95122.97;6239769;27;108911;-60
2023/03/23 06:29:10;;;;;;;6.60;6.10;;;;;;;20.81;36.13;95123.97;6238927;27;108964;-61
2023/03/23 06:32:21;;;;;;;6.40;5.90;;;;;;;20.97;35.89;95124.44;6229083;27;109099;-62
2023/03/23 06:35:26;;;;;;;6.03;5.63;;;;;;;21.07;35.51;95124.28;6239987;27;108744;-62
2023/03/23 06:38:34;;;;;;;5.20;4.90;;;;;;;21.18;35.67;95122.22;6239988;27;109802;-61
2023/03/23 06:41:44;;;;;;;5.57;5.17;;;;;;;21.23;36.08;95132.75;6234590;27;108851;-60
2023/03/23 06:44:53;;;;;;;6.03;5.53;;;;;;;21.36;35.43;95131.97;6233780;27;108963;-60
2023/03/23 06:48:01;;;;;;;6.80;6.10;;;;;;;21.44;35.54;95138.44;6239627;27;109187;-60
2023/03/23 06:51:09;;;;;;;6.37;5.87;;;;;;;21.52;35.04;95135.88;6239159;27;108916;-60
2023/03/23 06:54:17;;;;;;;6.23;5.73;;;;;;;21.53;35.30;95141.97;6227620;27;109006;-60
2023/03/23 06:57:23;;;;;;;5.97;5.47;;;;;;;21.59;35.57;95138.13;6239360;27;108863;-61
2023/03/23 07:00:33;;;;;;;5.80;5.30;;;;;;;21.63;35.19;95144.41;6235558;27;108769;-60
2023/03/23 07:03:42;;;;;;;6.03;5.53;;;;;;;21.72;35.40;95144.50;6238142;27;109070;-61
2023/03/23 07:06:52;;;;;;;6.10;5.60;;;;;;;21.77;35.23;95139.06;6228522;27;108823;-61
2023/03/23 07:09:59;;;;;;;5.70;5.23;;;;;;;21.84;34.79;95139.44;6239285;27;109233;-60
2023/03/23 07:13:09;;;;;;;5.20;4.80;;;;;;;21.90;34.86;95151.56;6237432;27;111071;-60
2023/03/23 07:16:14;;;;;;;5.30;4.90;;;;;;;21.96;34.71;95145.03;6233759;27;109206;-60
2023/03/23 07:19:21;;;;;;;5.40;5.00;;;;;;;22.02;35.16;95140.38;6233924;28;109862;-60
2023/03/23 07:22:29;;;;;;;6.03;5.53;;;;;;;21.98;34.89;95140.19;6236935;28;108948;-60
2023/03/23 07:25:36;;;;;;;6.43;5.90;;;;;;;22.03;35.18;95145.41;6238917;27;108870;-61
2023/03/23 07:28:43;;;;;;;4.90;4.50;;;;;;;22.08;34.97;95149.81;6229367;27;109876;-61
2023/03/23 07:31:51;;;;;;;5.93;5.43;;;;;;;22.13;34.66;95144.38;6238703;27;108958;-61
2023/03/23 07:35:01;;;;;;;5.70;5.30;;;;;;;22.17;35.17;95144.53;6238855;27;108863;-60
2023/03/23 07:38:09;;;;;;;5.27;4.87;;;;;;;22.22;34.76;95147.88;6238475;27;109027;-62
2023/03/23 07:41:18;;;;;;;6.03;5.60;;;;;;;22.26;35.17;95156.06;6228005;27;108848;-60
2023/03/23 07:44:27;;;;;;;5.57;5.17;;;;;;;22.30;34.76;95157.03;6238717;27;108959;-61
2023/03/23 07:47:41;;;;;;;4.90;4.60;;;;;;;22.33;34.94;95156.41;6238538;27;109090;-61
2023/03/23 07:50:53;;;;;;;5.57;5.17;;;;;;;22.35;34.87;95155.03;6232811;27;108854;-61
2023/03/23 07:53:59;;;;;;;5.00;4.70;;;;;;;22.39;35.07;95158.66;6237543;27;108831;-60
2023/03/23 07:57:04;;;;;;;5.43;5.03;;;;;;;22.40;34.45;95159.44;6238532;27;109928;-61
2023/03/23 08:00:19;;;;;;;5.40;5.00;;;;;;;22.42;34.72;95163.38;6235109;27;108789;-61
2023/03/23 08:03:29;;;;;;;5.47;5.07;;;;;;;22.44;34.46;95155.09;6212418;28;108949;-61
2023/03/23 08:06:39;;;;;;;6.70;5.97;;;;;;;22.40;34.42;95154.91;6224519;28;108950;-59
2023/03/23 08:09:44;;;;;;;8.73;7.80;;;;;;;22.33;35.34;95151.09;6232290;27;108827;-62
2023/03/23 08:12:48;;;;;;;8.30;7.50;;;;;;;22.33;36.11;95156.41;6232006;28;109079;-60
2023/03/23 08:15:54;;;;;;;8.70;7.57;;;;;;;22.31;35.99;95163.94;6216242;28;109007;-59
2023/03/23 08:18:58;;;;;;;8.60;7.90;;;;;;;22.31;36.53;95163.94;6215211;28;108876;-60
2023/03/23 08:22:06;;;;;;;7.70;7.10;;;;;;;22.28;36.18;95164.53;6235974;27;108926;-59
2023/03/23 08:25:12;;;;;;;8.00;7.40;;;;;;;22.31;36.56;95166.59;6226569;27;109215;-62
2023/03/23 08:28:16;;;;;;;7.83;7.13;;;;;;;22.31;36.71;95161.25;6236174;28;108885;-61
2023/03/23 08:31:20;;;;;;;8.97;8.27;;;;;;;22.35;36.81;95167.59;6236775;27;108907;-60
2023/03/23 08:34:24;;;;;;;8.63;7.70;;;;;;;22.38;36.87;95158.97;6218133;27;108715;-63
2023/03/23 08:37:27;;;;;;;9.07;8.17;;;;;;;22.39;36.24;95156.00;6212043;27;108849;-61
2023/03/23 08:40:31;;;;;;;8.50;7.80;;;;;;;22.41;36.70;95155.69;6234781;28;108929;-60
2023/03/23 08:43:37;;;;;;;8.40;7.80;;;;;;;22.40;36.58;95156.78;6235329;28;111919;-61
2023/03/23 08:46:44;;;;;;;8.73;8.03;;;;;;;22.44;36.39;95156.97;6233965;28;109284;-61
2023/03/23 08:49:52;;;;;;;9.00;8.20;;;;;;;22.44;36.93;95157.75;6225070;27;109119;-60
2023/03/23 08:52:56;;;;;;;9.43;8.73;;;;;;;22.45;36.95;95153.19;6235953;27;109086;-62
2023/03/23 08:56:03;;;;;;;8.10;7.47;;;;;;;22.46;36.42;95154.78;6237031;28;108812;-60
2023/03/23 08:59:06;;;;;;;9.03;8.23;;;;;;;22.42;37.05;95152.72;6229093;28;109005;-61
2023/03/23 09:02:13;;;;;;;10.00;9.00;;;;;;;22.38;37.01;95146.44;6227585;28;109378;-60
2023/03/23 09:05:18;;;;;;;8.67;7.93;;;;;;;22.30;37.19;95151.69;6235953;27;108862;-62
2023/03/23 09:08:22;;;;;;;10.10;9.10;;;;;;;22.22;37.06;95155.09;6236283;27;108938;-62
2023/03/23 09:11:24;;;;;;;9.13;8.40;;;;;;;22.19;37.10;95151.16;6214119;28;110902;-61
2023/03/23 09:14:27;;;;;;;9.60;8.70;;;;;;;22.18;37.36;95148.78;6217426;27;109718;-62
2023/03/23 09:17:29;;;;;;;8.60;7.90;;;;;;;22.12;37.33;95142.78;6215923;28;110469;-61
2023/03/23 09:20:33;;;;;;;10.20;9.20;;;;;;;22.10;37.50;95148.44;6223599;28;109326;-61
2023/03/23 09:23:38;;;;;;;8.80;8.00;;;;;;;22.07;37.62;95153.59;6220576;27;108981;-63
2023/03/23 09:26:40;;;;;;;9.20;8.23;;;;;;;22.08;37.51;95153.28;6208403;28;108764;-63
2023/03/23 09:29:44;;;;;;;8.93;8.23;;;;;;;22.06;37.44;95146.69;6217599;28;108796;-61
2023/03/23 09:32:49;;;;;;;9.13;8.37;;;;;;;22.03;37.41;95140.09;6223863;28;111266;-62
2023/03/23 09:35:52;;;;;;;9.33;8.60;;;;;;;22.10;37.33;95143.09;6217688;28;109422;-61
2023/03/23 09:38:55;;;;;;;9.30;8.60;;;;;;;22.14;37.61;95142.50;6216269;28;108708;-62
2023/03/23 09:42:15;;;;;;;9.97;8.17;;;;;;;22.15;37.23;95138.72;6228949;28;108860;-62
2023/03/23 09:45:27;;;;;;;8.87;8.17;;;;;;;22.13;37.13;95135.59;6213202;27;109053;-62
2023/03/23 09:48:46;;;;;;;8.87;8.10;;;;;;;22.06;37.09;95136.03;6219934;28;109694;-61
2023/03/23 09:51:58;;;;;;;8.67;7.87;;;;;;;22.07;37.56;95134.94;6228761;28;111354;-62
2023/03/23 09:55:12;;;;;;;8.87;8.03;;;;;;;22.05;37.43;95129.13;6240620;27;109032;-61
2023/03/23 09:58:26;;;;;;;8.50;7.80;;;;;;;22.04;37.35;95122.22;6229471;28;108799;-62
2023/03/23 10:01:37;;;;;;;8.50;7.80;;;;;;;22.03;37.38;95128.63;6240556;27;108995;-62
2023/03/23 10:04:49;;;;;;;10.00;9.10;;;;;;;22.03;37.56;95126.75;6240431;27;109398;-63
2023/03/23 10:07:55;;;;;;;25.17;23.30;;;;;;;22.03;37.15;95125.97;6229662;27;108741;-62
2023/03/23 10:11:11;;;;;;;41.23;38.13;;;;;;;21.99;37.39;95120.44;6238951;27;108897;-61
2023/03/23 10:14:32;;;;;;;43.60;40.30;;;;;;;21.99;37.58;95123.09;6239978;27;110296;-61
2023/03/23 10:17:48;;;;;;;41.20;37.70;;;;;;;22.00;37.71;95126.56;6238583;28;108971;-62
2023/03/23 10:21:03;;;;;;;35.27;32.47;;;;;;;22.00;37.99;95126.56;6228902;27;108940;-61
2023/03/23 10:24:14;;;;;;;32.03;29.53;;;;;;;21.99;38.21;95116.97;6235767;28;109050;-62
2023/03/23 10:27:28;;;;;;;30.10;27.60;;;;;;;22.05;37.74;95108.59;6239022;27;108643;-61
2023/03/23 10:30:39;;;;;;;29.03;26.53;;;;;;;22.17;37.98;95115.22;6230810;27;109333;-61
2023/03/23 10:33:49;;;;;;;26.80;24.70;;;;;;;22.23;37.67;95109.47;6238157;27;108885;-60
2023/03/23 10:37:05;;;;;;;25.40;23.50;;;;;;;22.28;37.08;95105.91;6238754;27;108780;-60
2023/03/23 10:40:18;;;;;;;25.40;23.40;;;;;;;22.28;37.54;95109.34;6239535;27;108852;-61
2023/03/23 10:43:24;;;;;;;22.77;21.07;;;;;;;22.26;37.53;95102.75;6228377;27;109808;-61
2023/03/23 10:46:38;;;;;;;22.07;20.37;;;;;;;22.28;37.41;95103.22;6239301;27;108945;-60
2023/03/23 10:49:46;;;;;;;22.20;20.50;;;;;;;22.30;37.07;95109.03;6238643;27;109073;-61
2023/03/23 10:52:53;;;;;;;22.60;20.80;;;;;;;22.32;36.83;95106.84;6234587;27;110279;-61
2023/03/23 10:55:59;;;;;;;21.07;19.57;;;;;;;22.29;37.37;95104.81;6228685;27;108898;-61
2023/03/23 10:59:14;;;;;;;19.30;17.57;;;;;;;22.28;37.23;95105.91;6229236;27;110572;-70
2023/03/23 11:02:20;;;;;;;19.73;18.23;;;;;;;22.22;37.69;95096.47;6230675;27;108794;-71
2023/03/23 11:05:27;;;;;;;17.60;16.30;;;;;;;22.22;37.45;95097.25;6221003;28;109083;-69
2023/03/23 11:08:41;;;;;;;17.70;16.30;;;;;;;22.26;37.91;95094.75;6220089;27;108996;-70
2023/03/23 11:11:46;;;;;;;18.07;16.70;;;;;;;22.21;37.60;95094.88;6237015;27;109138;-71
2023/03/23 11:14:52;;;;;;;17.77;16.37;;;;;;;22.18;37.98;95084.81;6223767;28;109018;-71
2023/03/23 11:18:02;;;;;;;16.73;15.43;;;;;;;22.17;37.67;95093.91;6228441;27;108866;-70
2023/03/23 11:21:10;;;;;;;16.80;15.40;;;;;;;22.20;37.88;95087.97;6234784;28;110682;-71
2023/03/23 11:24:15;;;;;;;15.43;14.27;;;;;;;22.20;37.64;95077.31;6227068;27;109098;-70
2023/03/23 11:27:20;;;;;;;15.80;14.40;;;;;;;22.18;38.13;95082.16;6214316;27;108824;-70
2023/03/23 11:30:28;;;;;;;14.70;13.60;;;;;;;22.15;37.68;95070.22;6216356;28;110575;-71
2023/03/23 11:33:41;;;;;;;13.00;12.00;;;;;;;22.14;38.16;95065.19;6232959;27;108743;-70
2023/03/23 11:36:51;;;;;;;13.60;12.50;;;;;;;22.14;38.08;95067.88;6235452;28;109030;-72
2023/03/23 11:39:58;;;;;;;13.37;12.33;;;;;;;22.11;37.79;95062.06;6217034;27;110448;-71
2023/03/23 11:43:12;;;;;;;12.93;11.80;;;;;;;22.10;37.78;95057.03;6227800;27;110724;-71
2023/03/23 11:46:28;;;;;;;14.00;12.90;;;;;;;22.10;38.03;95057.03;6230444;27;109154;-71
2023/03/23 11:49:46;;;;;;;13.27;12.27;;;;;;;22.00;37.99;95047.41;6224193;27;109797;-65
2023/03/23 11:53:02;;;;;;;11.17;10.27;;;;;;;22.02;37.74;95045.25;6211905;27;109101;-64
2023/03/23 11:56:26;;;;;;;11.53;10.53;;;;;;;22.00;37.72;95052.72;6236548;27;109230;-64
2023/03/23 11:59:35;;;;;;;12.00;11.00;;;;;;;21.98;37.85;95048.81;6236046;27;108916;-65
2023/03/23 12:02:59;;;;;;;11.33;10.33;;;;;;;21.94;37.83;95037.97;6225158;27;110322;-63
2023/03/23 12:06:07;;;;;;;10.30;9.50;;;;;;;21.92;37.46;95040.16;6209161;28;109128;-63
2023/03/23 12:09:23;;;;;;;10.17;9.30;;;;;;;21.90;37.82;95037.00;6237959;27;108851;-63
2023/03/23 12:12:42;;;;;;;11.50;10.47;;;;;;;21.87;37.70;95026.97;6238126;27;108911;-63
2023/03/23 12:15:53;;;;;;;10.10;9.33;;;;;;;21.88;37.94;95035.75;6228408;28;109120;-63
2023/03/23 12:19:07;;;;;;;9.73;8.93;;;;;;;21.87;37.79;95034.19;6237466;27;109502;-63
2023/03/23 12:22:33;;;;;;;9.67;8.80;;;;;;;21.86;37.58;95030.72;6237897;27;109819;-63
2023/03/23 12:26:02;;;;;;;9.57;8.77;;;;;;;21.85;37.91;95033.69;6225303;27;109177;-64
2023/03/23 12:29:37;;;;;;;10.17;9.37;;;;;;;21.85;37.51;95023.81;6237646;27;110083;-63
2023/03/23 12:33:00;;;;;;;9.50;8.80;;;;;;;21.84;37.55;95026.75;6237464;27;109044;-63
2023/03/23 12:36:22;;;;;;;9.03;8.43;;;;;;;21.83;37.53;95018.00;6229896;27;110778;-63
2023/03/23 12:40:07;;;;;;;8.80;8.10;;;;;;;21.80;37.48;95022.03;6236706;28;109961;-63
2023/03/23 12:43:21;;;;;;;8.90;8.20;;;;;;;21.78;37.74;95021.53;6237187;27;109035;-63
2023/03/23 12:46:44;;;;;;;10.27;9.47;;;;;;;21.81;37.62;95025.47;6219971;27;109751;-63
2023/03/23 12:49:52;;;;;;;8.10;7.50;;;;;;;21.90;37.54;95018.38;6208768;28;108991;-62
2023/03/23 12:53:04;;;;;;;8.00;7.30;;;;;;;20.67;34.46;95011.50;6213406;27;108931;-62
2023/03/23 12:56:17;;;;;;;7.47;6.90;;;;;;;21.11;36.30;95013.50;6225328;28;110152;-62
2023/03/23 12:59:27;;;;;;;7.73;7.10;;;;;;;21.49;36.67;95016.63;6207617;28;108907;-62
2023/03/23 13:02:35;;;;;;;7.23;6.67;;;;;;;21.72;36.25;95014.00;6236940;27;110196;-61
2023/03/23 13:05:54;;;;;;;7.37;6.77;;;;;;;21.84;36.71;95008.91;6232473;28;109680;-63
2023/03/23 13:09:06;;;;;;;8.13;7.43;;;;;;;21.89;37.36;95010.69;6230458;27;108955;-64
2023/03/23 13:12:13;;;;;;;6.90;6.40;;;;;;;21.90;37.47;95007.72;6201463;28;109826;-63
2023/03/23 13:15:28;;;;;;;7.00;6.40;;;;;;;21.89;37.55;94997.34;6223436;28;109066;-61
2023/03/23 13:18:44;;;;;;;6.20;5.80;;;;;;;21.97;37.51;94993.94;6234493;28;108943;-60
2023/03/23 13:21:56;;;;;;;7.33;6.77;;;;;;;22.07;37.81;94997.13;6231352;27;109928;-61
2023/03/23 13:25:13;;;;;;;7.17;6.43;;;;;;;22.08;38.06;94990.72;6232888;27;108862;-61
2023/03/23 13:28:26;;;;;;;6.40;5.90;;;;;;;22.11;38.27;94992.75;6232565;27;108900;-61
2023/03/23 13:31:33;;;;;;;7.83;7.13;;;;;;;22.14;37.96;94990.56;6234342;28;108929;-61
2023/03/23 13:34:38;;;;;;;6.60;5.97;;;;;;;22.15;38.02;94986.81;6223754;27;108764;-61
2023/03/23 13:37:48;;;;;;;7.03;6.43;;;;;;;22.15;38.25;94990.25;6211534;28;108965;-61
2023/03/23 13:40:57;;;;;;;6.30;5.80;;;;;;;22.16;38.41;94983.06;6211391;28;109012;-60
2023/03/23 13:44:19;;;;;;;6.47;5.97;;;;;;;22.18;38.36;94980.88;6211849;28;108772;-60
2023/03/23 13:47:32;;;;;;;6.20;5.30;;;;;;;22.18;38.73;94980.88;6206332;28;109615;-61
2023/03/23 13:50:50;;;;;;;6.57;6.07;;;;;;;22.20;38.71;94984.03;6232798;28;109104;-61
2023/03/23 13:54:05;;;;;;;5.97;5.50;;;;;;;22.21;38.84;94973.06;6233285;27;109099;-60
2023/03/23 13:57:26;;;;;;;6.20;5.70;;;;;;;22.20;39.28;94976.03;6202551;28;108981;-59
2023/03/23 14:00:47;;;;;;;5.70;5.30;;;;;;;22.24;38.64;94974.31;6230784;27;108894;-61
2023/03/23 14:03:51;;;;;;;5.60;5.17;;;;;;;22.22;39.31;94979.19;6212801;28;108818;-62
2023/03/23 14:06:55;;;;;;;6.10;5.50;;;;;;;22.23;39.36;94976.19;6228255;28;109657;-59
2023/03/23 14:09:59;;;;;;;6.27;5.77;;;;;;;22.27;39.68;94976.38;6205403;28;108933;-59
2023/03/23 14:13:05;;;;;;;5.10;4.60;;;;;;;22.24;39.95;94969.78;6222017;28;108999;-59
2023/03/23 14:16:18;;;;;;;7.30;6.53;;;;;;;22.27;39.88;94963.03;6210771;28;109112;-59
2023/03/23 14:19:24;;;;;;;5.70;5.27;;;;;;;22.27;39.95;94955.03;6200313;28;109368;-58
2023/03/23 14:22:29;;;;;;;5.80;5.40;;;;;;;22.26;40.03;94951.59;6226451;27;109796;-58
2023/03/23 14:25:32;;;;;;;5.43;5.03;;;;;;;22.25;40.15;94965.22;6227737;27;109272;-59
2023/03/23 14:28:44;;;;;;;5.90;5.43;;;;;;;22.24;40.31;94961.00;6239205;27;108759;-59
2023/03/23 14:31:56;;;;;;;5.63;5.13;;;;;;;22.28;40.27;94961.94;6229051;27;108868;-60